Time;durP1;ratioP1;P1;durP2;ratioP2;P2;SDS_P1;SDS_P2;PMS_P1;PMS_P2;Temp;Humidity;BMP_temperature;BMP_pressure;BME280_temperature;BME280_humidity;BME280_pressure;Samples;Min_cycle;Max_cycle;Signal;HPM_P1;HPM_P2
2023/03/19 00:00:37;;;;;;;10.27;8.60;;;8.40;79.80;;;8.81;67.60;97631.72;5086257;28;20452;-81
2023/03/19 00:03:06;;;;;;;8.83;7.93;;;8.40;79.80;;;8.39;67.15;97579.00;5118764;27;20449;-83
2023/03/19 00:05:33;;;;;;;9.27;8.03;;;8.50;79.60;;;8.99;67.15;97623.75;5094545;28;20455;-82
2023/03/19 00:08:00;;;;;;;10.23;8.70;;;8.60;79.70;;;9.01;66.45;97629.75;5093117;28;20455;-81
2023/03/19 00:10:28;;;;;;;9.60;7.73;;;8.60;79.60;;;8.66;66.80;97562.78;5094601;28;20458;-81
2023/03/19 00:12:56;;;;;;;8.83;7.17;;;8.70;79.40;;;8.88;66.69;97624.47;5100503;28;20512;-82
2023/03/19 00:15:23;;;;;;;9.70;7.50;;;8.70;79.20;;;8.22;67.04;97519.47;5098906;28;20450;-80
2023/03/19 00:17:51;;;;;;;8.23;7.40;;;8.70;79.40;;;8.35;67.90;97557.09;5111443;28;20483;-86
2023/03/19 00:20:21;;;;;;;9.90;8.30;;;8.50;79.70;;;8.49;67.93;97592.88;5113873;28;20472;-87
2023/03/19 00:22:48;;;;;;;10.60;8.10;;;8.40;80.10;;;8.76;68.17;97624.28;5113200;28;20445;-87
2023/03/19 00:25:16;;;;;;;8.23;7.43;;;8.40;80.20;;;8.78;67.02;97608.72;5129959;27;20467;-81
2023/03/19 00:27:43;;;;;;;8.67;6.73;;;8.50;80.00;;;8.42;67.48;97551.69;5105096;27;20443;-81
2023/03/19 00:30:12;;;;;;;9.63;7.70;;;8.60;79.60;;;8.91;67.26;97624.03;5103746;28;20502;-82
2023/03/19 00:32:39;;;;;;;8.70;7.70;;;8.70;79.40;;;8.87;67.24;97628.16;5123426;27;20439;-82
2023/03/19 00:35:09;;;;;;;9.23;7.77;;;8.70;79.40;;;8.55;67.50;97582.31;5116622;27;20926;-81
2023/03/19 00:37:38;;;;;;;10.07;8.13;;;8.60;79.50;;;8.71;68.10;97629.50;5098992;28;20498;-83
2023/03/19 00:40:09;;;;;;;9.90;8.20;;;8.50;79.80;;;8.48;67.98;97610.06;5115333;27;20441;-81
2023/03/19 00:42:36;;;;;;;9.87;7.27;;;8.30;80.10;;;8.36;69.84;97617.97;5138635;27;20536;-84
2023/03/19 00:45:04;;;;;;;10.27;7.90;;;8.20;80.70;;;8.51;69.40;97641.16;5100921;28;20497;-82
2023/03/19 00:47:32;;;;;;;8.13;7.00;;;8.10;81.40;;;8.56;69.09;97640.50;5118868;27;20496;-80
2023/03/19 00:50:00;;;;;;;10.57;7.70;;;8.20;81.50;;;7.89;69.52;97558.84;5139059;27;20464;-81
2023/03/19 00:52:28;;;;;;;8.63;7.73;;;8.20;81.80;;;8.47;69.19;97648.78;5115751;28;20460;-80
2023/03/19 00:54:57;;;;;;;8.87;7.97;;;8.10;81.80;;;8.19;69.95;97606.81;5111249;28;20443;-78
2023/03/19 00:57:25;;;;;;;9.30;8.00;;;8.10;82.40;;;8.33;70.28;97639.09;5113096;28;20486;-81
2023/03/19 00:59:53;;;;;;;12.73;7.37;;;8.10;82.80;;;8.52;71.71;97642.81;5094189;28;20450;-81
2023/03/19 01:02:20;;;;;;;10.77;8.63;;;8.20;83.20;;;7.91;70.67;97559.47;5098220;28;20452;-83
2023/03/19 01:04:49;;;;;;;9.20;8.30;;;8.10;83.50;;;8.34;71.37;97629.97;5135141;27;20468;-81
2023/03/19 01:07:17;;;;;;;9.30;7.83;;;8.00;84.70;;;8.41;70.66;97636.16;5129442;27;20458;-81
2023/03/19 01:09:47;;;;;;;10.27;8.23;;;8.10;84.20;;;8.47;69.55;97629.94;5106495;28;20535;-82
2023/03/19 01:12:18;;;;;;;14.43;8.73;;;8.20;83.10;;;8.64;68.68;97654.59;5099987;28;20488;-81
2023/03/19 01:14:45;;;;;;;11.13;8.00;;;8.30;82.20;;;8.64;68.52;97651.06;5093551;28;21016;-80
2023/03/19 01:17:13;;;;;;;8.93;7.90;;;8.30;82.00;;;8.34;69.10;97619.22;5107123;27;20516;-80
2023/03/19 01:19:40;;;;;;;11.57;8.43;;;8.20;82.00;;;8.53;69.78;97649.00;5096700;28;20497;-83
2023/03/19 01:22:08;;;;;;;10.10;8.20;;;8.20;82.70;;;8.42;70.48;97648.59;5096748;28;20852;-81
2023/03/19 01:24:35;;;;;;;9.63;7.50;;;8.20;83.20;;;7.65;70.55;97536.13;5096556;28;20451;-80
2023/03/19 01:27:03;;;;;;;11.67;8.20;;;8.20;84.10;;;8.21;72.87;97631.66;5091657;28;20458;-85
2023/03/19 01:29:32;;;;;;;10.43;8.80;;;8.30;84.80;;;8.34;70.67;97651.50;5105870;28;20788;-81
2023/03/19 01:32:00;;;;;;;12.00;8.87;;;8.20;83.60;;;8.41;70.60;97662.28;5098061;28;20454;-84
2023/03/19 01:34:28;;;;;;;10.67;8.43;;;8.20;83.40;;;8.23;71.23;97648.41;5104907;28;20457;-82
2023/03/19 01:36:55;;;;;;;11.77;8.47;;;8.20;83.70;;;7.69;70.60;97555.38;5096181;28;20467;-82
2023/03/19 01:39:23;;;;;;;8.80;7.30;;;8.10;83.10;;;8.25;70.30;97658.97;5082517;28;20439;-82
2023/03/19 01:41:53;;;;;;;10.00;7.57;;;8.10;83.00;;;8.27;70.04;97656.91;5096862;28;20490;-82
2023/03/19 01:44:29;;;;;;;9.70;8.40;;;8.10;83.00;;;8.01;71.25;97638.94;5108269;27;20535;-81
2023/03/19 01:47:01;;;;;;;9.43;7.10;;;8.10;83.50;;;8.03;72.08;97647.63;5096500;28;20448;-81
2023/03/19 01:49:30;;;;;;;10.30;7.87;;;8.00;83.60;;;7.91;71.40;97620.53;5092933;28;20451;-81
2023/03/19 01:52:00;;;;;;;8.53;7.40;;;8.00;83.70;;;7.77;70.79;97593.63;5102849;28;20457;-81
2023/03/19 01:54:32;;;;;;;12.90;7.90;;;7.90;84.10;;;8.10;71.90;97648.44;5093400;28;20473;-81
2023/03/19 01:57:06;;;;;;;9.23;7.77;;;7.90;85.00;;;8.01;73.29;97649.69;5090820;28;20596;-78
2023/03/19 01:59:37;;;;;;;11.10;7.70;;;8.00;85.90;;;8.04;73.71;97641.19;5087286;28;21114;-78
2023/03/19 02:02:19;;;;;;;8.47;7.60;;;8.00;85.90;;;7.54;72.94;97551.03;5081837;28;20474;-77
2023/03/19 02:04:52;;;;;;;11.00;8.87;;;8.10;85.80;;;8.19;72.73;97612.19;5107962;28;20452;-79
2023/03/19 02:07:22;;;;;;;10.50;7.03;;;8.10;86.00;;;8.03;74.02;97599.19;5114901;27;20464;-82
2023/03/19 02:09:51;;;;;;;11.03;7.40;;;8.10;86.90;;;7.89;72.51;97572.31;5109948;28;20440;-81
2023/03/19 02:12:19;;;;;;;9.10;8.20;;;8.20;85.50;;;8.18;73.53;97613.25;5095845;28;20464;-83
2023/03/19 02:14:48;;;;;;;9.57;7.07;;;8.20;86.40;;;8.33;72.32;97639.09;5099500;28;20690;-80
2023/03/19 02:17:17;;;;;;;11.20;8.17;;;8.30;85.20;;;8.33;72.41;97617.56;5107967;27;20476;-80
2023/03/19 02:19:54;;;;;;;8.53;7.60;;;8.30;85.70;;;8.33;72.31;97607.59;5118958;27;20449;-79
2023/03/19 02:22:26;;;;;;;8.83;7.87;;;8.30;84.20;;;8.25;70.77;97599.78;5105134;28;20453;-80
2023/03/19 02:24:59;;;;;;;8.77;7.40;;;8.30;83.70;;;8.32;70.45;97613.22;5111275;28;20819;-80
2023/03/19 02:27:28;;;;;;;7.70;6.90;;;8.30;83.50;;;7.87;70.57;97576.22;5114561;27;20881;-81
2023/03/19 02:29:56;;;;;;;9.33;7.43;;;8.20;82.70;;;7.57;70.44;97496.00;5090812;28;20462;-80
2023/03/19 02:32:23;;;;;;;9.90;7.67;;;8.20;83.00;;;8.32;70.04;97626.69;5100520;28;20450;-82
2023/03/19 02:34:50;;;;;;;9.70;8.20;;;8.00;82.80;;;7.89;69.79;97603.78;5097162;28;20446;-80
2023/03/19 02:37:24;;;;;;;8.90;7.73;;;7.90;82.90;;;8.08;69.76;97647.81;5101090;28;20478;-80
2023/03/19 02:39:58;;;;;;;8.70;7.80;;;7.90;83.00;;;8.17;69.60;97646.56;5107707;28;20489;-81
2023/03/19 02:42:29;;;;;;;10.03;8.33;;;8.00;82.70;;;7.98;70.44;97644.72;5088602;28;20451;-81
2023/03/19 02:44:57;;;;;;;11.53;8.30;;;7.80;82.90;;;7.86;70.14;97621.16;5112108;28;20533;-82
2023/03/19 02:47:26;;;;;;;10.17;8.23;;;7.70;83.10;;;8.01;69.86;97641.63;5091490;28;20475;-81
2023/03/19 02:49:55;;;;;;;10.70;8.57;;;7.70;83.60;;;8.10;69.89;97643.03;5100719;28;20451;-81
2023/03/19 02:52:23;;;;;;;10.00;7.87;;;7.80;83.90;;;8.23;70.08;97642.22;5110623;28;20547;-81
2023/03/19 02:54:50;;;;;;;10.50;7.60;;;7.90;83.70;;;8.08;69.57;97618.22;5111111;28;20462;-79
2023/03/19 02:57:17;;;;;;;9.67;7.97;;;8.00;83.30;;;8.26;69.07;97651.72;5092908;28;20485;-81
2023/03/19 02:59:47;;;;;;;10.60;8.00;;;8.00;82.30;;;8.09;69.10;97619.88;5097896;28;20459;-81
2023/03/19 03:02:15;;;;;;;9.00;8.10;;;8.00;82.50;;;8.33;68.97;97655.25;5095993;28;20440;-80
2023/03/19 03:04:44;;;;;;;10.07;7.87;;;8.00;82.20;;;8.28;68.83;97669.31;5102902;27;20460;-83
2023/03/19 03:07:12;;;;;;;9.43;7.83;;;8.00;82.20;;;8.32;68.98;97656.28;5119342;27;20447;-81
2023/03/19 03:09:40;;;;;;;10.93;8.27;;;8.00;82.50;;;8.32;68.49;97665.16;5113443;28;20463;-81
2023/03/19 03:12:09;;;;;;;8.87;7.40;;;8.00;82.30;;;8.19;68.25;97631.03;5097696;28;20446;-80
2023/03/19 03:14:39;;;;;;;11.70;8.27;;;8.00;82.20;;;8.33;68.35;97668.69;5098734;28;20456;-80
2023/03/19 03:17:08;;;;;;;8.47;7.70;;;8.00;82.10;;;8.36;69.20;97660.19;5086954;28;21029;-84
2023/03/19 03:19:37;;;;;;;9.33;7.57;;;8.00;82.40;;;7.88;70.45;97611.00;5085378;28;20460;-78
2023/03/19 03:22:05;;;;;;;11.20;8.40;;;8.10;82.90;;;7.83;70.10;97602.75;5118111;27;20448;-81
2023/03/19 03:24:32;;;;;;;9.10;7.60;;;8.20;82.90;;;8.28;69.96;97665.81;5092670;28;20494;-80
2023/03/19 03:27:01;;;;;;;10.10;7.97;;;8.20;82.50;;;8.28;69.27;97657.75;5086089;28;21108;-79
2023/03/19 03:29:30;;;;;;;10.20;8.33;;;8.20;82.00;;;8.35;68.83;97655.84;5080551;28;20494;-78
2023/03/19 03:31:57;;;;;;;9.33;7.97;;;8.20;82.00;;;8.42;68.84;97659.38;5089387;28;20462;-78
2023/03/19 03:34:26;;;;;;;11.70;8.60;;;8.20;82.10;;;8.27;70.13;97643.44;5096691;28;20448;-79
2023/03/19 03:36:53;;;;;;;11.57;8.80;;;8.20;82.80;;;8.32;70.24;97664.34;5092344;28;20809;-78
2023/03/19 03:39:21;;;;;;;13.40;9.87;;;8.20;82.80;;;8.43;71.07;97671.81;5089832;28;20596;-79
2023/03/19 03:41:48;;;;;;;11.03;9.83;;;8.30;83.40;;;8.50;69.66;97678.00;5091238;28;20452;-80
2023/03/19 03:44:16;;;;;;;11.63;10.53;;;8.30;82.80;;;8.55;68.66;97680.09;5102570;28;20444;-78
2023/03/19 03:46:44;;;;;;;12.43;10.47;;;8.30;82.20;;;8.04;68.03;97598.16;5101835;28;20549;-80
2023/03/19 03:49:12;;;;;;;13.90;12.50;;;8.20;82.20;;;8.42;68.53;97670.16;5096379;28;20451;-79
2023/03/19 03:51:41;;;;;;;18.43;16.83;;;8.30;82.10;;;8.37;68.98;97661.84;5106875;27;21633;-79
2023/03/19 03:54:11;;;;;;;24.23;21.63;;;8.20;82.20;;;8.43;68.89;97674.50;5089647;28;20446;-80
2023/03/19 03:56:39;;;;;;;25.37;22.90;;;8.20;82.30;;;8.15;69.49;97677.41;5102379;28;20436;-83
2023/03/19 03:59:07;;;;;;;24.30;21.47;;;8.20;82.50;;;8.22;69.73;97681.75;5122796;27;20498;-82
2023/03/19 04:01:35;;;;;;;20.50;18.50;;;8.10;82.50;;;8.20;70.55;97672.25;5101918;28;20447;-82
2023/03/19 04:04:02;;;;;;;18.03;16.23;;;8.20;83.10;;;8.26;70.79;97679.47;5150795;27;20447;-82
2023/03/19 04:06:30;;;;;;;16.13;14.63;;;8.20;83.10;;;8.22;71.15;97675.56;5114980;28;20543;-80
2023/03/19 04:08:58;;;;;;;17.90;13.30;;;8.20;83.30;;;8.21;70.54;97685.47;5114458;28;20457;-79
2023/03/19 04:11:26;;;;;;;13.77;11.60;;;8.20;83.10;;;7.72;69.62;97584.53;5118123;28;20451;-81
2023/03/19 04:13:55;;;;;;;13.73;11.63;;;8.20;83.00;;;8.29;70.45;97686.31;5110772;27;20458;-81
2023/03/19 04:16:23;;;;;;;13.40;10.97;;;8.20;82.80;;;7.77;70.70;97635.81;5112839;28;20505;-82
2023/03/19 04:18:50;;;;;;;11.93;10.70;;;8.20;82.90;;;8.22;70.73;97684.44;5096058;28;21006;-80
2023/03/19 04:21:18;;;;;;;11.83;10.20;;;8.10;82.90;;;7.60;70.77;97582.47;5091355;28;20447;-82
2023/03/19 04:23:45;;;;;;;11.33;10.17;;;8.30;83.80;;;8.20;70.58;97656.91;5087866;28;20448;-80
2023/03/19 04:26:15;;;;;;;11.70;9.80;;;8.30;83.50;;;8.66;73.67;97694.75;5090031;28;20443;-79
2023/03/19 04:28:42;;;;;;;11.97;10.67;;;8.40;85.20;;;8.46;70.61;97671.38;5111127;27;20456;-81
2023/03/19 04:31:11;;;;;;;11.00;9.83;;;8.40;83.80;;;8.54;70.28;97678.44;5122880;27;21182;-80
2023/03/19 04:33:38;;;;;;;12.90;9.73;;;8.50;83.40;;;8.84;70.75;97704.88;5110499;27;20451;-81
2023/03/19 04:36:07;;;;;;;10.13;9.13;;;8.60;83.50;;;8.78;68.38;97689.53;5090246;28;20515;-82
2023/03/19 04:38:35;;;;;;;11.53;9.83;;;8.60;82.40;;;8.68;68.70;97702.63;5098374;28;20474;-83
2023/03/19 04:41:03;;;;;;;11.67;10.47;;;8.60;81.70;;;8.59;69.02;97667.03;5106022;28;20481;-83
2023/03/19 04:43:31;;;;;;;11.60;9.63;;;8.60;82.20;;;8.86;67.41;97704.63;5105612;28;20488;-79
2023/03/19 04:45:59;;;;;;;11.27;9.93;;;8.70;81.40;;;8.72;67.72;97685.00;5094122;28;20796;-80
2023/03/19 04:48:28;;;;;;;12.73;10.30;;;8.60;81.50;;;8.92;67.95;97701.94;5096290;28;20786;-82
2023/03/19 04:50:57;;;;;;;10.73;9.30;;;8.60;81.70;;;8.93;67.52;97708.16;5116841;27;20855;-79
2023/03/19 04:53:24;;;;;;;13.47;9.80;;;8.60;81.70;;;8.97;67.31;97705.88;5098327;28;20987;-80
2023/03/19 04:55:52;;;;;;;11.90;10.70;;;8.60;81.80;;;8.59;67.48;97659.75;5104933;28;20444;-80
2023/03/19 04:58:20;;;;;;;12.07;9.97;;;8.60;81.40;;;8.81;67.24;97704.47;5107122;28;20471;-78
2023/03/19 05:00:49;;;;;;;10.73;9.63;;;8.60;81.30;;;8.81;67.91;97720.63;5094477;28;20459;-79
2023/03/19 05:03:16;;;;;;;11.47;9.87;;;8.50;81.50;;;8.50;67.73;97671.81;5117827;27;20447;-79
2023/03/19 05:05:45;;;;;;;15.93;10.00;;;8.50;81.80;;;8.84;68.37;97722.88;5109431;27;20511;-78
2023/03/19 05:08:13;;;;;;;10.63;9.50;;;8.50;81.70;;;8.64;69.00;97727.31;5078594;28;20477;-78
2023/03/19 05:10:41;;;;;;;11.50;9.97;;;8.50;81.60;;;8.39;69.15;97686.69;5122796;27;20955;-79
2023/03/19 05:13:08;;;;;;;13.83;10.80;;;8.60;81.80;;;8.52;68.87;97703.91;5085567;28;20453;-78
2023/03/19 05:15:36;;;;;;;11.23;10.10;;;8.50;81.60;;;8.56;69.83;97713.22;5115991;27;20458;-81
2023/03/19 05:18:04;;;;;;;10.07;9.07;;;8.50;82.00;;;8.49;71.29;97716.72;5110242;27;20547;-79
2023/03/19 05:20:32;;;;;;;10.80;9.70;;;8.50;83.30;;;8.21;69.94;97707.00;5099412;28;20455;-78
2023/03/19 05:22:59;;;;;;;10.90;9.00;;;8.40;82.30;;;8.37;69.88;97721.06;5140962;27;20661;-81
2023/03/19 05:25:27;;;;;;;11.13;9.47;;;8.40;82.20;;;8.21;70.15;97733.13;5132981;28;20810;-81
2023/03/19 05:27:55;;;;;;;12.90;9.40;;;8.20;81.80;;;8.39;69.60;97739.72;5116523;28;20551;-83
2023/03/19 05:30:23;;;;;;;11.30;9.10;;;8.30;82.20;;;8.32;69.74;97731.66;5100625;28;20452;-77
2023/03/19 05:32:51;;;;;;;11.43;9.73;;;8.30;81.90;;;7.89;69.22;97663.75;5126486;27;20549;-80
2023/03/19 05:35:20;;;;;;;11.57;9.00;;;8.30;81.90;;;8.28;70.95;97749.25;5089317;28;20503;-83
2023/03/19 05:37:48;;;;;;;11.40;9.40;;;8.30;82.80;;;7.61;70.07;97667.47;5128401;27;20468;-79
2023/03/19 05:40:16;;;;;;;11.53;9.17;;;8.20;82.30;;;7.84;70.20;97695.84;5094155;28;20447;-78
2023/03/19 05:42:43;;;;;;;11.80;8.90;;;8.20;82.30;;;8.38;69.36;97760.41;5107417;28;20459;-78
2023/03/19 05:45:12;;;;;;;11.00;9.00;;;8.20;82.00;;;8.21;68.73;97725.84;5099508;28;20448;-78
2023/03/19 05:47:39;;;;;;;9.90;8.80;;;8.30;81.70;;;8.45;69.42;97753.19;5105796;27;20952;-79
2023/03/19 05:50:08;;;;;;;11.10;9.10;;;8.30;81.70;;;8.35;69.14;97758.16;5101649;28;20587;-78
2023/03/19 05:52:37;;;;;;;11.10;8.53;;;8.30;81.60;;;8.42;68.93;97763.53;5112261;28;20492;-78
2023/03/19 05:55:06;;;;;;;10.93;9.20;;;8.30;81.60;;;8.37;70.17;97769.53;5108481;28;20452;-79
2023/03/19 05:57:33;;;;;;;9.33;8.33;;;8.40;82.50;;;8.57;69.68;97792.94;5120301;27;20435;-80
2023/03/19 06:00:05;;;;;;;10.53;8.40;;;8.40;82.30;;;8.54;69.27;97779.91;5094284;28;20462;-79
2023/03/19 06:02:33;;;;;;;17.00;9.63;;;8.40;81.90;;;8.75;68.25;97782.41;5091020;28;20917;-79
2023/03/19 06:05:01;;;;;;;11.90;8.87;;;8.50;81.50;;;8.79;68.67;97778.22;5126435;27;20463;-77
2023/03/19 06:07:28;;;;;;;9.60;8.60;;;8.60;81.70;;;8.93;67.62;97800.59;5104130;28;20439;-80
2023/03/19 06:09:57;;;;;;;11.77;9.00;;;8.70;81.50;;;9.07;67.70;97790.63;5108079;28;20455;-81
2023/03/19 06:12:24;;;;;;;10.70;9.30;;;8.80;81.40;;;9.13;66.64;97796.19;5100144;28;20436;-79
2023/03/19 06:14:51;;;;;;;9.63;8.43;;;8.80;81.00;;;8.85;67.50;97773.88;5093893;28;20440;-81
2023/03/19 06:17:19;;;;;;;11.30;9.37;;;8.90;80.80;;;8.90;67.26;97770.56;5093642;28;20506;-78
2023/03/19 06:19:48;;;;;;;13.27;8.80;;;8.90;80.60;;;9.09;67.28;97809.25;5096599;28;20486;-81
2023/03/19 06:22:16;;;;;;;9.60;8.60;;;9.00;80.50;;;8.96;67.96;97810.13;5089877;28;20440;-78
2023/03/19 06:24:44;;;;;;;12.33;9.33;;;9.00;80.40;;;8.10;68.04;97710.31;5105274;27;20435;-80
2023/03/19 06:27:13;;;;;;;9.80;8.80;;;8.90;80.30;;;8.81;68.14;97809.53;5095892;28;20457;-80
2023/03/19 06:29:40;;;;;;;9.97;7.90;;;8.80;80.50;;;9.00;67.73;97811.34;5108216;27;20479;-72
2023/03/19 06:32:09;;;;;;;9.97;8.57;;;8.90;80.80;;;9.11;66.60;97784.81;5091454;28;20451;-72
2023/03/19 06:34:37;;;;;;;9.07;8.17;;;8.90;81.00;;;9.18;66.84;97812.59;5090364;28;20454;-73
2023/03/19 06:37:05;;;;;;;12.33;8.67;;;9.00;80.70;;;9.29;67.22;97814.59;5093831;28;20446;-73
2023/03/19 06:39:33;;;;;;;11.70;8.70;;;9.00;80.50;;;9.40;66.18;97801.50;5082004;28;20479;-70
2023/03/19 06:42:02;;;;;;;9.97;9.07;;;9.20;80.30;;;9.44;66.50;97817.06;5085550;28;20467;-70
2023/03/19 06:44:30;;;;;;;12.13;9.20;;;9.30;80.10;;;9.11;67.28;97803.66;5090999;28;20455;-71
2023/03/19 06:46:58;;;;;;;9.80;8.80;;;9.30;80.10;;;9.56;66.26;97817.22;5080550;28;20483;-77
2023/03/19 06:49:26;;;;;;;10.50;9.40;;;9.40;80.10;;;9.68;65.76;97824.63;5081568;28;20448;-77
2023/03/19 06:51:53;;;;;;;12.00;8.33;;;9.60;79.70;;;9.51;66.31;97822.44;5082269;28;21008;-78
2023/03/19 06:54:24;;;;;;;11.37;9.20;;;9.50;79.70;;;9.52;65.52;97809.75;5081850;28;20447;-76
2023/03/19 06:56:51;;;;;;;9.33;8.33;;;9.50;79.70;;;9.96;64.83;97837.78;5093886;27;20452;-76
2023/03/19 06:59:19;;;;;;;12.20;9.03;;;9.60;79.70;;;10.04;64.42;97836.69;5084326;28;20981;-76
2023/03/19 07:01:48;;;;;;;11.63;8.60;;;9.80;79.20;;;9.99;64.58;97850.00;5103730;27;20622;-74
2023/03/19 07:04:15;;;;;;;10.93;8.63;;;9.90;79.10;;;9.87;64.94;97831.81;5087099;28;20516;-77
2023/03/19 07:06:42;;;;;;;9.70;8.70;;;9.90;79.10;;;10.09;64.25;97855.78;5110069;27;20644;-78
2023/03/19 07:09:12;;;;;;;11.73;8.90;;;10.00;78.10;;;10.12;64.70;97855.34;5082467;28;20444;-73
2023/03/19 07:11:39;;;;;;;12.93;9.10;;;10.00;78.00;;;10.05;64.88;97857.25;5081831;28;20795;-73
2023/03/19 07:14:06;;;;;;;10.03;8.30;;;10.00;77.90;;;10.35;63.83;97876.38;5111524;27;20443;-73
2023/03/19 07:16:34;;;;;;;9.57;8.57;;;10.10;77.90;;;10.26;63.87;97866.06;5069417;28;20443;-74
2023/03/19 07:19:06;;;;;;;11.13;8.93;;;10.20;77.50;;;10.65;62.80;97884.97;5093616;28;20480;-74
2023/03/19 07:21:34;;;;;;;11.70;9.10;;;10.30;77.40;;;10.66;63.30;97876.63;5079720;28;20440;-75
2023/03/19 07:24:02;;;;;;;11.63;8.03;;;10.50;77.10;;;10.08;64.92;97886.50;5082602;28;20519;-75
2023/03/19 07:26:29;;;;;;;10.30;8.70;;;10.20;77.30;;;10.03;65.11;97864.72;5088929;28;20463;-75
2023/03/19 07:28:56;;;;;;;11.00;8.80;;;10.20;78.00;;;9.83;66.20;97873.75;5080224;28;21382;-76
2023/03/19 07:31:24;;;;;;;10.03;8.97;;;10.00;78.30;;;9.96;65.48;97891.75;5083686;28;20444;-75
2023/03/19 07:33:51;;;;;;;9.83;8.60;;;10.00;78.40;;;10.07;66.01;97876.75;5084897;28;20468;-75
2023/03/19 07:36:21;;;;;;;9.83;8.83;;;10.10;78.70;;;10.62;64.35;97900.56;5093559;28;20458;-75
2023/03/19 07:38:50;;;;;;;10.03;9.03;;;10.30;78.50;;;10.29;65.56;97904.25;5091722;28;20472;-74
2023/03/19 07:41:17;;;;;;;10.63;9.00;;;10.30;78.00;;;10.29;65.23;97911.53;5103963;28;20488;-76
2023/03/19 07:43:44;;;;;;;12.03;8.80;;;10.20;78.30;;;10.51;64.59;97903.13;5095031;28;20454;-76
2023/03/19 07:46:12;;;;;;;9.33;8.30;;;10.30;78.20;;;10.27;65.17;97900.94;5087249;28;20451;-76
2023/03/19 07:48:39;;;;;;;10.63;9.50;;;10.30;78.10;;;10.44;64.84;97912.09;5102709;28;20464;-75
2023/03/19 07:51:07;;;;;;;11.43;9.20;;;10.30;78.20;;;10.13;65.78;97894.78;5112483;27;20532;-75
2023/03/19 07:53:36;;;;;;;10.10;8.60;;;10.30;78.20;;;10.62;64.43;97918.63;5110719;28;20469;-76
2023/03/19 07:56:03;;;;;;;9.10;8.10;;;10.40;78.30;;;10.63;64.36;97914.88;5112389;28;20447;-73
2023/03/19 07:58:31;;;;;;;11.10;8.80;;;10.50;78.10;;;10.18;66.34;97919.25;5100276;28;20484;-76
2023/03/19 08:00:58;;;;;;;8.87;7.97;;;10.30;78.50;;;10.25;65.53;97862.53;5089313;28;20496;-76
2023/03/19 08:03:25;;;;;;;13.00;8.87;;;10.30;78.80;;;10.97;64.24;97920.84;5077135;28;20538;-78
2023/03/19 08:05:53;;;;;;;10.13;8.30;;;10.60;78.80;;;11.01;64.52;97911.28;5092920;28;20546;-74
2023/03/19 08:08:21;;;;;;;9.60;8.60;;;10.70;78.60;;;11.29;63.79;97928.09;5084966;28;20486;-74
2023/03/19 08:10:53;;;;;;;10.63;9.47;;;10.90;78.70;;;11.45;63.12;97926.69;5089281;28;20449;-76
2023/03/19 08:13:21;;;;;;;9.27;8.17;;;11.10;78.40;;;11.15;63.97;97911.16;5090584;28;20455;-74
2023/03/19 08:15:49;;;;;;;10.93;8.77;;;11.10;78.50;;;11.56;63.48;97947.59;5091611;28;20445;-75
2023/03/19 08:18:17;;;;;;;11.50;9.60;;;11.20;78.50;;;11.73;63.98;97938.88;5087988;28;20928;-74
2023/03/19 08:20:45;;;;;;;9.60;8.77;;;11.40;78.90;;;11.65;63.35;97936.50;5114689;27;20978;-74
2023/03/19 08:23:13;;;;;;;9.70;8.30;;;11.40;78.60;;;11.74;64.26;97932.41;5086014;28;20464;-73
2023/03/19 08:25:41;;;;;;;8.70;7.67;;;11.40;79.10;;;12.01;63.38;97942.94;5083209;28;20457;-71
2023/03/19 08:28:09;;;;;;;8.67;7.60;;;11.50;79.10;;;11.74;64.75;97941.38;5076391;28;20501;-73
2023/03/19 08:30:37;;;;;;;9.27;7.57;;;11.60;79.10;;;11.87;64.86;97942.28;5084667;28;20448;-74
2023/03/19 08:33:06;;;;;;;8.53;7.63;;;11.60;79.60;;;12.03;64.17;97949.81;5082832;28;20456;-74
2023/03/19 08:35:33;;;;;;;9.03;8.13;;;11.60;79.50;;;11.95;64.45;97962.81;5080824;28;20468;-74
2023/03/19 08:38:00;;;;;;;8.23;7.43;;;11.70;79.30;;;11.68;65.54;97947.69;5098828;27;20447;-74
2023/03/19 08:40:28;;;;;;;10.20;8.07;;;11.60;79.50;;;11.83;66.01;97958.13;5101498;28;20997;-72
2023/03/19 08:42:56;;;;;;;10.40;8.77;;;11.50;80.30;;;11.80;65.97;97952.34;5082688;28;20521;-73
2023/03/19 08:45:25;;;;;;;9.40;8.50;;;11.50;80.60;;;11.62;66.54;97962.09;5078106;28;20961;-74
2023/03/19 08:47:52;;;;;;;10.83;8.27;;;11.30;80.60;;;11.45;68.47;97964.56;5087261;28;20462;-74
2023/03/19 08:50:20;;;;;;;7.50;6.77;;;11.40;81.70;;;11.56;69.23;97974.66;5090660;28;20542;-75
2023/03/19 08:52:47;;;;;;;5.33;4.83;;;11.30;82.70;;;11.44;70.51;97968.31;5089714;28;20452;-73
2023/03/19 08:55:16;;;;;;;7.27;4.43;;;11.30;83.80;;;11.56;71.53;97966.53;5086377;28;20464;-72
2023/03/19 08:57:43;;;;;;;5.57;5.07;;;11.30;85.40;;;11.53;72.45;97960.75;5089189;28;20463;-73
2023/03/19 09:00:13;;;;;;;5.70;4.50;;;11.30;86.30;;;11.57;72.88;97973.59;5099927;27;20474;-73
2023/03/19 09:02:42;;;;;;;4.57;4.23;;;11.30;87.80;;;11.44;73.53;97969.16;5089250;28;20455;-73
2023/03/19 09:05:14;;;;;;;5.17;4.50;;;11.20;88.70;;;11.30;74.43;97945.97;5085675;28;20455;-74
2023/03/19 09:07:41;;;;;;;4.40;3.80;;;11.20;89.70;;;11.17;75.22;97973.97;5093893;28;20541;-73
2023/03/19 09:10:10;;;;;;;4.30;3.90;;;11.10;90.30;;;11.33;75.21;97986.94;5104759;27;20949;-72
2023/03/19 09:12:37;;;;;;;4.90;4.40;;;11.10;90.90;;;11.32;76.18;97979.88;5104313;28;20454;-73
2023/03/19 09:15:07;;;;;;;3.97;3.40;;;11.00;91.30;;;11.45;75.72;97978.91;5123033;27;20465;-74
2023/03/19 09:17:35;;;;;;;10.80;3.90;;;11.10;91.50;;;11.70;76.68;97990.75;5095242;27;20444;-73
2023/03/19 09:20:04;;;;;;;4.63;3.83;;;11.30;92.50;;;11.86;75.21;97989.34;5109565;27;20458;-73
2023/03/19 09:22:32;;;;;;;4.40;3.90;;;11.50;91.40;;;12.09;74.28;97982.47;5095224;28;20938;-72
2023/03/19 09:24:59;;;;;;;3.90;3.60;;;11.70;90.90;;;11.76;73.84;97935.75;5095644;28;20532;-74
2023/03/19 09:27:27;;;;;;;3.67;3.37;;;11.90;90.20;;;12.16;72.91;97978.63;5091600;27;20828;-74
2023/03/19 09:29:55;;;;;;;5.03;4.10;;;12.00;88.80;;;12.39;72.84;97968.97;5090206;28;20850;-72
2023/03/19 09:32:24;;;;;;;4.47;4.07;;;12.20;89.60;;;12.10;74.63;97984.97;5094793;27;20461;-73
2023/03/19 09:34:51;;;;;;;3.67;3.37;;;12.10;89.60;;;11.90;73.20;97991.41;5102715;28;20453;-75
2023/03/19 09:37:20;;;;;;;3.67;3.37;;;11.90;88.60;;;11.86;73.77;97982.06;5088778;28;20475;-73
2023/03/19 09:39:47;;;;;;;7.20;5.40;;;11.70;88.90;;;11.86;74.90;97992.88;5089889;28;20472;-75
2023/03/19 09:42:35;;;;;;;4.33;3.80;;;11.70;90.30;;;12.23;74.47;97988.56;5091033;28;20461;-74
2023/03/19 09:45:03;;;;;;;3.97;3.10;;;11.80;91.00;;;12.17;73.01;97985.69;5084981;28;20461;-70
2023/03/19 09:47:33;;;;;;;4.53;4.03;;;11.80;89.70;;;12.03;74.23;97989.59;5088329;28;20831;-74
2023/03/19 09:50:04;;;;;;;3.40;3.10;;;11.70;90.50;;;11.77;75.30;97975.28;5081990;28;20527;-76
2023/03/19 09:52:42;;;;;;;3.67;3.33;;;11.70;90.40;;;12.12;74.64;97988.25;5080858;28;20457;-73
2023/03/19 09:55:25;;;;;;;2.90;2.70;;;11.80;90.70;;;12.55;71.86;97993.78;5075373;28;20461;-74
2023/03/19 09:57:55;;;;;;;4.40;3.27;;;12.10;88.50;;;12.33;72.98;97980.72;5080014;28;20945;-74
2023/03/19 10:00:26;;;;;;;3.40;3.10;;;12.20;88.30;;;12.47;72.89;97987.63;5086692;28;20468;-74
2023/03/19 10:03:01;;;;;;;6.40;3.53;;;12.20;89.40;;;11.99;74.12;97996.50;5096880;28;20451;-73
2023/03/19 10:05:44;;;;;;;3.30;3.03;;;12.00;89.90;;;12.03;74.27;97984.19;5099242;28;20474;-73
2023/03/19 10:08:45;;;;;;;4.10;3.70;;;11.90;89.70;;;12.66;72.36;97990.31;5098385;28;20458;-73
2023/03/19 10:11:33;;;;;;;3.70;3.40;;;12.20;89.00;;;12.40;74.36;98002.31;5077952;28;21113;-73
2023/03/19 10:14:27;;;;;;;3.67;3.37;;;12.20;90.10;;;12.00;73.15;98001.69;5098493;28;20445;-75
2023/03/19 10:16:58;;;;;;;3.97;3.67;;;12.10;87.80;;;12.53;72.57;98001.31;5105596;28;20438;-74
2023/03/19 10:19:39;;;;;;;5.40;3.43;;;12.10;89.20;;;12.35;72.36;97997.56;5102449;28;20464;-74
2023/03/19 10:22:15;;;;;;;4.63;4.23;;;12.10;88.70;;;12.64;70.91;97997.81;5085954;28;20535;-75
2023/03/19 10:24:46;;;;;;;5.23;4.30;;;12.20;87.70;;;12.74;70.75;97984.56;5089870;28;20543;-74
2023/03/19 10:27:16;;;;;;;3.77;3.47;;;12.40;87.60;;;12.99;69.75;97993.56;5099723;28;20448;-74
2023/03/19 10:29:44;;;;;;;4.00;3.70;;;12.40;86.50;;;12.77;70.62;98002.25;5103103;28;20457;-73
2023/03/19 10:32:18;;;;;;;3.93;3.63;;;12.40;86.50;;;12.97;70.60;98001.13;5114891;28;20463;-73